createdAt,value
2019-03-17T00:00:53.228Z,3.87
2019-03-17T00:03:23.654Z,4.23
2019-03-17T00:05:54.103Z,6.13
2019-03-17T00:08:24.887Z,5.40
2019-03-17T00:10:55.738Z,4.57
2019-03-17T00:13:26.169Z,6.47
2019-03-17T00:15:56.634Z,5.30
2019-03-17T00:18:27.112Z,6.17
2019-03-17T00:20:57.536Z,6.70
2019-03-17T00:23:27.994Z,4.90
2019-03-17T00:25:58.829Z,3.80
2019-03-17T00:28:29.295Z,5.30
2019-03-17T00:30:59.757Z,4.27
2019-03-17T00:33:30.173Z,8.20
2019-03-17T00:36:00.635Z,3.40
2019-03-17T00:38:31.063Z,5.00
2019-03-17T00:41:01.511Z,7.13
2019-03-17T00:43:31.963Z,5.50
2019-03-17T00:46:02.731Z,5.07
2019-03-17T00:48:33.155Z,6.13
2019-03-17T00:51:03.632Z,4.13
2019-03-17T00:53:34.778Z,5.23
2019-03-17T00:56:05.199Z,5.03
2019-03-17T00:58:36.542Z,4.30
2019-03-17T01:01:07.299Z,5.97
2019-03-17T01:03:38.036Z,5.47
2019-03-17T01:06:08.803Z,2.87
2019-03-17T01:08:39.230Z,3.97
2019-03-17T01:11:09.651Z,3.10
2019-03-17T01:13:40.103Z,4.17
2019-03-17T01:16:10.534Z,4.27
2019-03-17T01:18:41.292Z,6.13
2019-03-17T01:21:12.483Z,3.47
2019-03-17T01:23:42.902Z,5.93
2019-03-17T01:26:13.379Z,6.20
2019-03-17T01:28:43.806Z,3.27
2019-03-17T01:31:14.642Z,3.73
2019-03-17T01:33:45.111Z,5.57
2019-03-17T01:36:15.543Z,2.80
2019-03-17T01:38:45.969Z,5.00
2019-03-17T01:41:16.415Z,4.77
2019-03-17T01:43:47.168Z,2.67
2019-03-17T01:46:17.625Z,4.43
2019-03-17T01:48:48.041Z,5.83
2019-03-17T01:51:19.170Z,4.10
2019-03-17T01:53:49.871Z,4.70
2019-03-17T01:56:20.295Z,3.80
2019-03-17T01:58:50.791Z,2.27
2019-03-17T02:01:21.224Z,4.23
2019-03-17T02:03:51.647Z,5.23
2019-03-17T02:06:22.093Z,6.27
2019-03-17T02:08:52.515Z,2.80
2019-03-17T02:11:22.983Z,3.03
2019-03-17T02:13:53.410Z,1.93
2019-03-17T02:16:23.845Z,3.67
2019-03-17T02:18:54.399Z,2.80
2019-03-17T02:21:24.831Z,2.83
2019-03-17T02:23:55.255Z,3.73
2019-03-17T02:26:25.724Z,3.67
2019-03-17T02:28:56.149Z,3.50
2019-03-17T02:31:26.597Z,4.50
2019-03-17T02:33:57.425Z,4.50
2019-03-17T02:36:28.011Z,2.10
2019-03-17T02:38:58.872Z,2.87
2019-03-17T02:41:30.019Z,5.13
2019-03-17T02:44:00.747Z,3.87
2019-03-17T02:46:31.210Z,5.20
2019-03-17T02:49:02.340Z,3.73
2019-03-17T02:51:33.175Z,3.30
2019-03-17T02:54:04.398Z,4.53
2019-03-17T02:56:34.857Z,4.27
2019-03-17T02:59:05.950Z,3.87
2019-03-17T03:01:36.428Z,1.97
2019-03-17T03:04:06.855Z,2.83
2019-03-17T03:06:37.286Z,4.13
2019-03-17T03:09:09.140Z,2.73
2019-03-17T03:11:39.620Z,2.63
2019-03-17T03:14:10.452Z,1.60
2019-03-17T03:16:40.888Z,2.37
2019-03-17T03:19:11.326Z,1.47
2019-03-17T03:21:41.784Z,2.03
2019-03-17T03:24:12.641Z,5.00
2019-03-17T03:26:43.410Z,2.43
2019-03-17T03:29:14.708Z,2.23
2019-03-17T03:31:45.189Z,5.97
2019-03-17T03:34:15.634Z,2.53
2019-03-17T03:36:46.065Z,3.27
2019-03-17T03:39:16.488Z,2.40
2019-03-17T03:41:47.261Z,1.77
2019-03-17T03:44:17.672Z,1.70
2019-03-17T03:46:48.144Z,2.97
2019-03-17T03:49:18.569Z,2.10
2019-03-17T03:51:49.004Z,3.13
2019-03-17T03:54:19.457Z,1.97
2019-03-17T03:56:50.695Z,3.00
2019-03-17T03:59:21.248Z,3.23
2019-03-17T04:01:51.682Z,3.53
2019-03-17T04:04:22.429Z,2.50
2019-03-17T04:06:52.853Z,2.20
2019-03-17T04:09:23.317Z,3.97
2019-03-17T04:11:54.077Z,2.17
2019-03-17T04:14:24.547Z,2.40
2019-03-17T04:16:55.354Z,2.83
2019-03-17T04:19:25.780Z,3.37
2019-03-17T04:21:56.276Z,1.60
2019-03-17T04:24:26.707Z,2.70
2019-03-17T04:26:57.139Z,2.20
2019-03-17T04:29:27.616Z,2.47
2019-03-17T04:31:58.085Z,2.10
2019-03-17T04:34:28.511Z,3.03
2019-03-17T04:36:59.322Z,4.73
2019-03-17T04:39:29.744Z,2.20
2019-03-17T04:42:00.208Z,2.33
2019-03-17T04:44:31.010Z,4.30
2019-03-17T04:47:01.444Z,2.10
2019-03-17T04:49:31.927Z,2.23
2019-03-17T04:52:03.115Z,4.00
2019-03-17T04:54:33.935Z,2.30
2019-03-17T04:57:04.388Z,2.30
2019-03-17T04:59:35.551Z,3.10
2019-03-17T05:02:06.016Z,2.27
2019-03-17T05:04:36.438Z,3.53
2019-03-17T05:07:07.253Z,4.27
2019-03-17T05:09:37.994Z,5.27
2019-03-17T05:12:08.439Z,4.70
2019-03-17T05:14:38.863Z,2.83
2019-03-17T05:17:09.750Z,2.60
2019-03-17T05:19:40.219Z,2.57
2019-03-17T05:22:10.652Z,4.47
2019-03-17T05:24:41.376Z,3.60
2019-03-17T05:27:12.839Z,2.90
2019-03-17T05:29:43.265Z,4.90
2019-03-17T05:32:13.720Z,2.73
2019-03-17T05:34:44.894Z,3.67
2019-03-17T05:37:15.395Z,4.67
2019-03-17T05:39:45.829Z,4.47
2019-03-17T05:42:16.308Z,4.67
2019-03-17T05:44:47.544Z,3.53
2019-03-17T05:47:18.016Z,5.57
2019-03-17T05:49:48.784Z,4.53
2019-03-17T05:52:19.211Z,4.00
2019-03-17T05:54:50.001Z,7.40
2019-03-17T05:57:20.481Z,6.03
2019-03-17T05:59:50.906Z,4.47
2019-03-17T06:02:21.595Z,5.53
2019-03-17T06:04:52.097Z,4.37
2019-03-17T06:07:22.504Z,6.67
2019-03-17T06:09:52.931Z,5.63
2019-03-17T06:12:23.403Z,5.03
2019-03-17T06:14:55.060Z,5.00
2019-03-17T06:17:25.580Z,6.63
2019-03-17T06:19:56.057Z,4.50
2019-03-17T06:22:26.471Z,6.30
2019-03-17T06:24:57.173Z,6.67
2019-03-17T06:27:27.973Z,4.63
2019-03-17T06:29:58.402Z,3.90
2019-03-17T06:32:28.832Z,6.30
2019-03-17T06:34:59.312Z,7.03
2019-03-17T06:37:31.274Z,8.43
2019-03-17T06:40:01.892Z,4.27
2019-03-17T06:42:32.360Z,6.80
2019-03-17T06:45:03.078Z,6.90
2019-03-17T06:47:33.775Z,5.87
2019-03-17T06:50:04.563Z,6.97
2019-03-17T06:52:34.982Z,6.10
2019-03-17T06:55:05.926Z,6.13
2019-03-17T06:57:37.069Z,5.70
2019-03-17T07:00:07.771Z,4.50
2019-03-17T07:02:38.203Z,6.00
2019-03-17T07:05:09.402Z,5.03
2019-03-17T07:07:44.435Z,11.23
2019-03-17T07:10:12.073Z,6.53
2019-03-17T07:12:42.552Z,5.03
2019-03-17T07:15:13.291Z,9.43
2019-03-17T07:17:44.141Z,5.33
2019-03-17T07:20:14.653Z,8.10
2019-03-17T07:22:45.066Z,9.07
2019-03-17T07:25:15.501Z,11.33
2019-03-17T07:27:45.972Z,4.77
2019-03-17T07:30:16.591Z,6.27
2019-03-17T07:32:47.015Z,7.93
2019-03-17T07:35:17.500Z,10.27
2019-03-17T07:37:56.830Z,7.20
2019-03-17T07:40:20.563Z,7.40
2019-03-17T07:42:51.038Z,6.37
2019-03-17T07:45:21.459Z,5.83
2019-03-17T07:47:51.883Z,8.77
2019-03-17T07:50:22.369Z,7.60
2019-03-17T07:52:53.120Z,3.00
2019-03-17T07:55:23.547Z,6.00
2019-03-17T07:57:54.396Z,4.30
2019-03-17T08:00:31.778Z,5.53
2019-03-17T08:02:56.985Z,10.00
2019-03-17T08:05:27.465Z,5.50
2019-03-17T08:08:08.866Z,6.97
2019-03-17T08:10:30.343Z,5.93
2019-03-17T08:13:00.830Z,4.63
2019-03-17T08:15:31.257Z,4.37
2019-03-17T08:18:01.684Z,5.50
2019-03-17T08:20:32.556Z,5.40
2019-03-17T08:23:02.991Z,4.67
2019-03-17T08:25:33.415Z,5.07
2019-03-17T08:28:04.723Z,4.60
2019-03-17T08:30:35.263Z,6.60
2019-03-17T08:33:05.999Z,7.60
2019-03-17T08:35:37.247Z,7.20
2019-03-17T08:38:07.683Z,6.17
2019-03-17T08:40:38.526Z,3.00
2019-03-17T08:43:09.771Z,6.10
2019-03-17T08:45:40.199Z,4.40
2019-03-17T08:48:10.631Z,6.57
2019-03-17T08:50:41.177Z,7.17
2019-03-17T08:53:11.593Z,3.50
2019-03-17T08:55:42.035Z,5.70
2019-03-17T08:58:13.512Z,5.20
2019-03-17T09:00:44.416Z,2.07
2019-03-17T09:03:15.120Z,7.90
2019-03-17T09:05:45.668Z,4.10
2019-03-17T09:08:16.457Z,4.27
2019-03-17T09:10:47.363Z,3.90
2019-03-17T09:13:19.536Z,3.83
2019-03-17T09:15:50.686Z,4.83
2019-03-17T09:18:21.522Z,2.60
2019-03-17T09:20:52.301Z,1.73
2019-03-17T09:23:22.743Z,2.70
2019-03-17T09:25:53.568Z,3.80
2019-03-17T09:28:24.219Z,1.27
2019-03-17T09:30:54.664Z,3.77
2019-03-17T09:33:25.428Z,1.60
2019-03-17T09:35:56.266Z,1.33
2019-03-17T09:38:27.503Z,1.60
2019-03-17T09:40:58.303Z,1.80
2019-03-17T09:43:28.780Z,1.20
2019-03-17T09:45:59.224Z,1.97
2019-03-17T09:48:29.952Z,2.40
2019-03-17T09:51:00.788Z,2.07
2019-03-17T09:53:31.556Z,4.07
2019-03-17T09:56:02.035Z,1.50
2019-03-17T09:58:35.701Z,1.50
2019-03-17T10:01:06.876Z,0.50
2019-03-17T10:03:37.765Z,0.50
2019-03-17T10:06:08.532Z,0.57
2019-03-17T10:08:38.970Z,1.50
2019-03-17T10:11:10.716Z,1.80
2019-03-17T10:13:42.083Z,0.77
2019-03-17T10:16:13.104Z,1.53
2019-03-17T10:18:43.553Z,0.57
2019-03-17T10:21:14.332Z,1.13
2019-03-17T10:23:45.071Z,1.23
2019-03-17T10:26:16.230Z,1.07
2019-03-17T10:28:46.676Z,0.77
2019-03-17T10:31:17.127Z,0.80
2019-03-17T10:33:47.992Z,3.03
2019-03-17T10:36:19.674Z,1.20
2019-03-17T10:38:50.148Z,0.67
2019-03-17T10:41:20.942Z,0.77
2019-03-17T10:43:51.431Z,1.47
2019-03-17T10:46:23.418Z,1.27
2019-03-17T10:48:54.279Z,0.57
2019-03-17T10:51:24.803Z,1.43
2019-03-17T10:53:55.257Z,0.90
2019-03-17T10:56:26.086Z,0.70
2019-03-17T10:58:56.568Z,1.93
2019-03-17T11:01:27.356Z,0.63
2019-03-17T11:03:57.795Z,1.00
2019-03-17T11:06:28.294Z,1.10
2019-03-17T11:08:58.720Z,1.03
2019-03-17T11:11:29.427Z,0.60
2019-03-17T11:13:59.923Z,1.03
2019-03-17T11:16:30.751Z,0.70
2019-03-17T11:19:01.183Z,0.90
2019-03-17T11:21:31.647Z,1.43
2019-03-17T11:24:02.379Z,1.03
2019-03-17T11:26:33.190Z,1.17
2019-03-17T11:29:03.671Z,1.10
2019-03-17T11:31:34.247Z,0.80
2019-03-17T11:34:04.699Z,0.70
2019-03-17T11:36:35.134Z,1.07
2019-03-17T11:39:08.013Z,1.10
2019-03-17T11:41:38.730Z,1.67
2019-03-17T11:44:09.198Z,0.90
2019-03-17T11:46:39.683Z,0.93
2019-03-17T11:49:11.259Z,0.90
2019-03-17T11:51:41.702Z,2.73
2019-03-17T11:54:12.188Z,2.47
2019-03-17T11:56:44.604Z,0.60
2019-03-17T11:59:15.368Z,2.37
2019-03-17T12:01:45.923Z,1.67
2019-03-17T12:04:16.695Z,1.43
2019-03-17T12:06:47.131Z,1.30
2019-03-17T12:09:28.620Z,0.97
2019-03-17T12:11:51.498Z,1.97
2019-03-17T12:14:22.641Z,2.03
2019-03-17T12:16:53.101Z,1.47
2019-03-17T12:19:23.892Z,1.73
2019-03-17T12:21:54.357Z,1.73
2019-03-17T12:24:24.787Z,5.53
2019-03-17T12:26:55.234Z,1.23
2019-03-17T12:29:25.704Z,1.47
2019-03-17T12:31:56.540Z,0.87
2019-03-17T12:34:28.720Z,2.90
2019-03-17T12:36:59.327Z,1.00
2019-03-17T12:39:30.135Z,3.00
2019-03-17T12:42:00.636Z,1.20
2019-03-17T12:44:31.117Z,2.33
2019-03-17T12:47:01.712Z,3.27
2019-03-17T12:49:32.145Z,6.03
2019-03-17T12:52:03.430Z,1.33
2019-03-17T12:54:33.860Z,2.03
2019-03-17T12:57:06.367Z,1.27
2019-03-17T12:59:36.857Z,2.70
2019-03-17T13:02:07.615Z,1.90
2019-03-17T13:04:38.406Z,2.80
2019-03-17T13:07:09.251Z,2.67
2019-03-17T13:09:39.700Z,2.27
2019-03-17T13:12:10.144Z,1.67
2019-03-17T13:14:40.615Z,1.23
2019-03-17T13:17:11.443Z,1.10
2019-03-17T13:19:41.891Z,1.00
2019-03-17T13:22:12.393Z,0.97
2019-03-17T13:24:43.203Z,1.87
2019-03-17T13:27:13.658Z,0.97
2019-03-17T13:29:45.564Z,1.10
2019-03-17T13:32:16.372Z,0.50
2019-03-17T13:34:47.050Z,1.17
2019-03-17T13:37:20.607Z,0.57
2019-03-17T13:39:51.044Z,0.53
2019-03-17T13:42:21.524Z,1.67
2019-03-17T13:44:52.067Z,0.83
2019-03-17T13:47:22.491Z,0.70
2019-03-17T13:49:53.504Z,1.40
2019-03-17T13:52:23.990Z,3.57
2019-03-17T13:54:55.067Z,1.00
2019-03-17T13:57:25.891Z,1.13
2019-03-17T13:59:56.429Z,1.00
2019-03-17T14:02:27.221Z,1.33
2019-03-17T14:04:57.840Z,2.10
2019-03-17T14:07:28.597Z,1.37
2019-03-17T14:09:59.377Z,2.47
2019-03-17T14:12:30.199Z,1.40
2019-03-17T14:15:01.050Z,1.47
2019-03-17T14:17:31.888Z,0.83
2019-03-17T14:20:02.719Z,2.00
2019-03-17T14:22:33.192Z,0.70
2019-03-17T14:25:03.751Z,0.97
2019-03-17T14:27:35.023Z,1.30
2019-03-17T14:30:06.171Z,1.70
2019-03-17T14:32:36.920Z,1.67
2019-03-17T14:35:08.153Z,1.33
2019-03-17T14:37:39.971Z,0.70
2019-03-17T14:40:11.658Z,1.03
2019-03-17T14:42:42.468Z,1.37
2019-03-17T14:45:14.168Z,1.93
2019-03-17T14:47:45.574Z,2.53
2019-03-17T14:50:17.352Z,1.73
2019-03-17T14:52:50.166Z,1.83
2019-03-17T14:55:20.670Z,1.83
2019-03-17T14:57:51.117Z,2.30
2019-03-17T15:00:21.689Z,2.00
2019-03-17T15:02:52.495Z,1.27
2019-03-17T15:05:25.447Z,2.00
2019-03-17T15:07:56.550Z,1.60
2019-03-17T15:10:27.520Z,1.43
2019-03-17T15:12:58.355Z,1.93
2019-03-17T15:15:29.885Z,2.87
2019-03-17T15:18:00.322Z,0.90
2019-03-17T15:20:30.794Z,1.47
2019-03-17T15:23:01.270Z,1.07
2019-03-17T15:25:31.707Z,0.67
2019-03-17T15:28:02.140Z,0.70
2019-03-17T15:30:32.684Z,1.20
2019-03-17T15:33:03.492Z,0.93
2019-03-17T15:35:33.913Z,1.63
2019-03-17T15:38:04.827Z,0.90
2019-03-17T15:40:35.353Z,3.40
2019-03-17T15:43:06.068Z,2.63
2019-03-17T15:45:36.865Z,2.37
2019-03-17T15:48:07.313Z,1.30
2019-03-17T15:50:37.773Z,1.27
2019-03-17T15:53:08.322Z,3.03
2019-03-17T15:55:39.333Z,2.70
2019-03-17T15:58:10.143Z,1.90
2019-03-17T16:00:40.623Z,1.20
2019-03-17T16:03:14.802Z,1.37
2019-03-17T16:05:45.239Z,1.33
2019-03-17T16:08:16.095Z,1.13
2019-03-17T16:10:46.549Z,2.57
2019-03-17T16:13:17.075Z,2.10
2019-03-17T16:15:47.959Z,1.20
2019-03-17T16:18:18.435Z,1.10
2019-03-17T16:20:49.205Z,0.93
2019-03-17T16:23:19.676Z,1.20
2019-03-17T16:25:50.677Z,1.40
2019-03-17T16:28:21.170Z,0.97
2019-03-17T16:30:51.667Z,0.93
2019-03-17T16:33:22.122Z,1.67
2019-03-17T16:35:53.338Z,1.90
2019-03-17T16:38:23.801Z,1.43
2019-03-17T16:40:54.631Z,2.27
2019-03-17T16:43:25.244Z,0.90
2019-03-17T16:45:55.738Z,2.50
2019-03-17T16:48:26.540Z,1.17
2019-03-17T16:50:57.984Z,0.73
2019-03-17T16:53:28.468Z,1.40
2019-03-17T16:55:59.297Z,1.23
2019-03-17T16:58:32.319Z,1.57
2019-03-17T17:01:04.165Z,0.70
2019-03-17T17:03:34.663Z,1.53
2019-03-17T17:06:05.113Z,2.00
2019-03-17T17:08:37.659Z,1.30
2019-03-17T17:11:08.108Z,1.63
2019-03-17T17:13:38.885Z,2.17
2019-03-17T17:16:10.493Z,3.53
2019-03-17T17:18:41.089Z,2.57
2019-03-17T17:21:12.358Z,1.43
2019-03-17T17:23:42.838Z,1.20
2019-03-17T17:26:14.268Z,2.47
2019-03-17T17:28:46.833Z,2.40
2019-03-17T17:31:17.683Z,2.33
2019-03-17T17:33:48.443Z,1.50
2019-03-17T17:36:19.237Z,2.27
2019-03-17T17:38:50.615Z,4.47
2019-03-17T17:41:21.410Z,1.23
2019-03-17T17:43:51.835Z,2.10
2019-03-17T17:46:24.631Z,1.60
2019-03-17T17:48:55.071Z,2.13
2019-03-17T17:51:25.575Z,2.13
2019-03-17T17:53:56.070Z,1.53
2019-03-17T17:56:26.528Z,1.40
2019-03-17T17:58:57.699Z,2.77
2019-03-17T18:01:28.881Z,2.87
2019-03-17T18:03:59.619Z,8.10
2019-03-17T18:06:30.511Z,3.73
2019-03-17T18:09:00.996Z,2.80
2019-03-17T18:11:31.438Z,4.20
2019-03-17T18:14:01.879Z,5.70
2019-03-17T18:16:33.608Z,4.13
2019-03-17T18:19:04.056Z,2.63
2019-03-17T18:21:34.495Z,2.80
2019-03-17T18:24:04.975Z,3.33
2019-03-17T18:26:35.799Z,4.63
2019-03-17T18:29:06.546Z,2.67
2019-03-17T18:31:37.180Z,4.33
2019-03-17T18:34:07.610Z,4.37
2019-03-17T18:36:38.035Z,3.13
2019-03-17T18:39:08.877Z,2.63
2019-03-17T18:41:40.073Z,2.80
2019-03-17T18:44:12.299Z,2.07
2019-03-17T18:46:43.131Z,5.07
2019-03-17T18:49:13.898Z,6.97
2019-03-17T18:51:45.619Z,4.80
2019-03-17T18:54:16.140Z,2.63
2019-03-17T18:56:46.861Z,2.37
2019-03-17T18:59:18.124Z,3.73
2019-03-17T19:01:49.975Z,1.43
2019-03-17T19:04:20.481Z,3.23
2019-03-17T19:06:51.796Z,2.70
2019-03-17T19:09:23.437Z,2.00
2019-03-17T19:11:54.566Z,2.57
2019-03-17T19:14:25.035Z,2.80
2019-03-17T19:16:56.384Z,3.73
2019-03-17T19:19:26.894Z,2.90
2019-03-17T19:21:57.710Z,5.73
2019-03-17T19:24:29.057Z,4.03
2019-03-17T19:26:59.500Z,4.77
2019-03-17T19:29:30.582Z,2.53
2019-03-17T19:32:01.143Z,3.27
2019-03-17T19:34:32.282Z,2.83
2019-03-17T19:37:02.794Z,1.80
2019-03-17T19:39:33.657Z,1.70
2019-03-17T19:42:04.468Z,1.90
2019-03-17T19:44:35.707Z,2.37
2019-03-17T19:47:06.546Z,2.97
2019-03-17T19:49:38.016Z,4.03
2019-03-17T19:52:09.269Z,2.57
2019-03-17T19:54:39.697Z,1.17
2019-03-17T19:57:10.123Z,1.70
2019-03-17T19:59:41.956Z,2.90
2019-03-17T20:02:14.274Z,2.03
2019-03-17T20:04:45.007Z,3.20
2019-03-17T20:07:15.503Z,2.03
2019-03-17T20:09:46.759Z,4.00
2019-03-17T20:12:17.523Z,3.60
2019-03-17T20:14:48.050Z,5.70
2019-03-17T20:17:18.768Z,3.03
2019-03-17T20:19:49.840Z,3.60
2019-03-17T20:22:21.128Z,4.93
2019-03-17T20:24:51.891Z,2.07
2019-03-17T20:27:22.638Z,4.13
2019-03-17T20:29:53.524Z,3.80
2019-03-17T20:32:24.057Z,2.50
2019-03-17T20:34:54.485Z,1.97
2019-03-17T20:37:25.060Z,2.03
2019-03-17T20:39:55.794Z,3.30
2019-03-17T20:42:28.593Z,4.77
2019-03-17T20:44:59.473Z,4.50
2019-03-17T20:47:30.279Z,3.53
2019-03-17T20:50:00.887Z,3.67
2019-03-17T20:52:31.824Z,2.00
2019-03-17T20:55:03.515Z,2.80
2019-03-17T20:57:34.919Z,5.00
2019-03-17T21:00:05.979Z,5.57
2019-03-17T21:02:36.481Z,3.50
2019-03-17T21:05:07.413Z,3.87
2019-03-17T21:07:38.208Z,4.17
2019-03-17T21:10:10.155Z,5.37
2019-03-17T21:12:40.618Z,5.47
2019-03-17T21:15:11.983Z,3.33
2019-03-17T21:17:42.723Z,3.37
2019-03-17T21:20:14.551Z,4.20
2019-03-17T21:22:45.481Z,4.43
2019-03-17T21:25:16.238Z,6.13
2019-03-17T21:27:46.689Z,3.33
2019-03-17T21:30:19.497Z,2.40
2019-03-17T21:32:51.144Z,3.40
2019-03-17T21:35:23.785Z,3.23
2019-03-17T21:37:54.619Z,3.77
2019-03-17T21:40:25.423Z,4.60
2019-03-17T21:42:55.979Z,4.63
2019-03-17T21:45:27.610Z,4.27
2019-03-17T21:47:58.632Z,7.13
2019-03-17T21:50:29.430Z,3.37
2019-03-17T21:52:59.897Z,4.23
2019-03-17T21:55:30.369Z,4.43
2019-03-17T21:58:07.659Z,4.57
2019-03-17T22:00:33.663Z,2.93
2019-03-17T22:03:04.195Z,4.20
2019-03-17T22:05:34.673Z,3.47
2019-03-17T22:08:05.099Z,4.97
2019-03-17T22:10:35.811Z,3.53
2019-03-17T22:13:06.282Z,4.03
2019-03-17T22:15:36.718Z,6.30
2019-03-17T22:18:07.146Z,3.30
2019-03-17T22:20:37.617Z,8.13
2019-03-17T22:23:08.043Z,4.73
2019-03-17T22:25:38.481Z,7.40
2019-03-17T22:28:08.976Z,2.93
2019-03-17T22:30:40.085Z,4.70
2019-03-17T22:33:10.516Z,9.10
2019-03-17T22:35:41.004Z,6.13
2019-03-17T22:38:11.430Z,5.23
2019-03-17T22:40:41.855Z,6.17
2019-03-17T22:43:12.802Z,4.47
2019-03-17T22:45:43.232Z,12.33
2019-03-17T22:48:14.024Z,6.33
2019-03-17T22:50:44.498Z,4.40
2019-03-17T22:53:15.991Z,5.20
2019-03-17T22:55:46.727Z,7.43
2019-03-17T22:58:17.515Z,6.33
2019-03-17T23:00:49.081Z,6.90
2019-03-17T23:03:19.807Z,7.43
2019-03-17T23:05:50.275Z,5.17
2019-03-17T23:08:20.701Z,7.43
2019-03-17T23:10:51.471Z,5.13
2019-03-17T23:13:22.718Z,5.37
2019-03-17T23:15:53.147Z,6.17
2019-03-17T23:18:23.972Z,5.83
2019-03-17T23:20:54.447Z,9.83
2019-03-17T23:23:25.305Z,6.03
2019-03-17T23:25:55.740Z,10.33
2019-03-17T23:28:26.219Z,6.00
2019-03-17T23:30:56.651Z,9.77
2019-03-17T23:33:27.799Z,4.10
2019-03-17T23:35:58.605Z,5.27
2019-03-17T23:38:29.107Z,5.67
2019-03-17T23:41:00.407Z,5.00
2019-03-17T23:43:31.340Z,3.63
2019-03-17T23:46:02.601Z,6.27
2019-03-17T23:48:33.030Z,6.17
2019-03-17T23:51:03.515Z,6.53
2019-03-17T23:53:34.333Z,5.87
2019-03-17T23:56:05.022Z,3.80
2019-03-17T23:58:35.599Z,6.30
